Time;durP1;ratioP1;P1;durP2;ratioP2;P2;SDS_P1;SDS_P2;PMS_P1;PMS_P2;Temp;Humidity;BMP_temperature;BMP_pressure;BME280_temperature;BME280_humidity;BME280_pressure;Samples;Min_cycle;Max_cycle;Signal;HPM_P1;HPM_P2
2024/03/21 00:02:15;;;;;;;8.27;3.78;;;;;;;3.61;100.00;101780.88;5007174;28;20037;-72
2024/03/21 00:04:41;;;;;;;8.52;3.50;;;;;;;3.61;100.00;101784.38;5035275;28;20129;-72
2024/03/21 00:07:06;;;;;;;12.55;4.20;;;;;;;3.65;100.00;101782.34;5019083;28;20123;-73
2024/03/21 00:09:33;;;;;;;12.35;3.78;;;;;;;3.67;100.00;101777.78;5001264;28;20057;-74
2024/03/21 00:11:59;;;;;;;9.10;3.50;;;;;;;3.70;100.00;101774.91;5004502;28;20051;-72
2024/03/21 00:14:25;;;;;;;7.03;3.00;;;;;;;3.74;100.00;101765.78;5016048;28;20396;-72
2024/03/21 00:16:51;;;;;;;7.85;3.15;;;;;;;3.78;100.00;101764.59;5036703;28;20087;-73
2024/03/21 00:19:18;;;;;;;8.65;3.03;;;;;;;3.77;100.00;101765.56;5048058;28;20484;-73
2024/03/21 00:21:45;;;;;;;4.65;2.55;;;;;;;3.81;100.00;101771.50;5018463;28;20068;-73
2024/03/21 00:24:12;;;;;;;5.53;2.47;;;;;;;3.92;100.00;101763.63;5010369;28;20037;-73
2024/03/21 00:26:37;;;;;;;7.43;3.17;;;;;;;4.01;100.00;101756.81;5043893;28;20040;-73
2024/03/21 00:29:04;;;;;;;8.63;3.22;;;;;;;4.11;100.00;101755.19;5041628;28;20455;-73
2024/03/21 00:31:34;;;;;;;10.57;2.78;;;;;;;4.25;100.00;101764.84;5021887;28;20091;-72
2024/03/21 00:34:08;;;;;;;6.47;2.08;;;;;;;4.35;100.00;101756.09;5052928;28;20043;-72
2024/03/21 00:36:34;;;;;;;6.68;2.15;;;;;;;4.48;100.00;101760.53;5040235;28;20037;-72
2024/03/21 00:38:59;;;;;;;7.72;2.67;;;;;;;4.56;100.00;101768.81;5032117;28;20434;-73
2024/03/21 00:41:25;;;;;;;6.55;2.47;;;;;;;4.58;100.00;101770.41;5020211;28;20048;-72
2024/03/21 00:43:51;;;;;;;9.38;2.53;;;;;;;4.63;100.00;101767.38;5022484;28;20033;-72
2024/03/21 00:46:16;;;;;;;4.35;2.10;;;;;;;4.62;100.00;101769.22;5034727;28;20037;-73
2024/03/21 00:48:44;;;;;;;5.95;2.20;;;;;;;4.62;100.00;101776.34;5011896;28;20043;-73
2024/03/21 00:51:10;;;;;;;6.10;2.60;;;;;;;4.61;100.00;101767.50;5002876;28;20041;-73
2024/03/21 00:53:35;;;;;;;7.70;2.50;;;;;;;4.61;100.00;101764.84;5001697;28;20026;-72
2024/03/21 00:56:01;;;;;;;4.43;2.58;;;;;;;4.62;100.00;101765.69;5010068;28;20034;-73
2024/03/21 00:58:27;;;;;;;6.10;2.15;;;;;;;4.60;100.00;101751.63;5023591;28;20032;-73
2024/03/21 01:00:52;;;;;;;9.45;2.47;;;;;;;4.64;100.00;101761.13;5049530;28;20074;-73
2024/03/21 01:03:20;;;;;;;11.55;2.80;;;;;;;4.64;100.00;101753.13;5007783;28;20523;-73
2024/03/21 01:05:51;;;;;;;7.60;2.50;;;;;;;4.68;100.00;101751.91;5005516;28;20037;-73
2024/03/21 01:08:19;;;;;;;10.02;2.67;;;;;;;4.72;100.00;101739.25;5035909;28;20072;-74
2024/03/21 01:10:52;;;;;;;10.60;2.67;;;;;;;4.74;100.00;101743.50;5006694;28;20428;-73
2024/03/21 01:13:20;;;;;;;12.15;2.60;;;;;;;4.77;100.00;101737.94;5026711;28;20123;-73
2024/03/21 01:15:46;;;;;;;9.50;2.40;;;;;;;4.84;100.00;101741.84;5036309;28;20494;-73
2024/03/21 01:18:13;;;;;;;10.23;2.40;;;;;;;4.91;100.00;101723.56;5002213;28;20037;-73
2024/03/21 01:20:42;;;;;;;9.00;2.75;;;;;;;4.96;100.00;101726.75;5027226;28;20040;-74
2024/03/21 01:23:08;;;;;;;7.82;2.42;;;;;;;5.03;100.00;101719.16;5031069;28;20547;-73
2024/03/21 01:25:34;;;;;;;8.25;2.75;;;;;;;5.07;100.00;101717.94;5004097;28;20067;-73
2024/03/21 01:28:03;;;;;;;11.63;2.63;;;;;;;5.15;100.00;101722.69;5017333;28;20025;-73
2024/03/21 01:30:33;;;;;;;10.65;3.00;;;;;;;5.21;100.00;101717.75;5021752;28;20052;-72
2024/03/21 01:32:59;;;;;;;7.35;2.97;;;;;;;5.28;100.00;101723.44;5025421;28;20072;-72
2024/03/21 01:35:27;;;;;;;8.98;2.33;;;;;;;5.29;100.00;101717.13;5026743;28;20034;-73
2024/03/21 01:37:55;;;;;;;9.38;3.05;;;;;;;5.28;100.00;101715.44;5020731;28;20033;-73
2024/03/21 01:40:20;;;;;;;6.07;2.83;;;;;;;5.27;100.00;101719.09;5035262;28;20034;-72
2024/03/21 01:42:48;;;;;;;7.90;2.72;;;;;;;5.34;100.00;101727.44;4999542;28;20056;-73
2024/03/21 01:45:15;;;;;;;9.80;3.40;;;;;;;5.37;100.00;101716.53;5036538;28;20038;-72
2024/03/21 01:47:41;;;;;;;8.98;3.33;;;;;;;5.40;100.00;101717.16;5060669;28;20108;-74
2024/03/21 01:50:07;;;;;;;8.63;3.00;;;;;;;5.40;100.00;101718.97;5004949;28;20056;-73
2024/03/21 01:52:34;;;;;;;6.10;2.33;;;;;;;5.44;100.00;101725.78;5030253;28;20373;-73
2024/03/21 01:55:00;;;;;;;9.75;2.80;;;;;;;5.46;100.00;101727.34;5034115;28;20036;-73
2024/03/21 01:57:26;;;;;;;4.90;2.60;;;;;;;5.47;100.00;101725.53;5023372;28;20034;-73
2024/03/21 01:59:56;;;;;;;6.05;2.00;;;;;;;5.41;100.00;101726.84;5002552;28;20463;-73
2024/03/21 02:02:23;;;;;;;6.78;2.95;;;;;;;5.40;100.00;101721.63;5005782;28;20057;-73
2024/03/21 02:04:49;;;;;;;5.82;2.28;;;;;;;5.43;100.00;101724.09;5013139;28;20045;-72
2024/03/21 02:07:17;;;;;;;7.65;2.38;;;;;;;5.47;100.00;101717.53;5023679;28;20044;-73
2024/03/21 02:09:49;;;;;;;7.00;2.38;;;;;;;5.50;100.00;101719.94;5033596;28;20468;-73
2024/03/21 02:12:46;;;;;;;4.15;2.38;;;;;;;5.49;100.00;101718.28;5028630;28;20055;-72
2024/03/21 02:15:12;;;;;;;7.50;2.30;;;;;;;5.48;100.00;101721.91;5001811;28;20029;-73
2024/03/21 02:17:38;;;;;;;6.60;2.47;;;;;;;5.54;100.00;101726.75;5031946;28;20045;-72
2024/03/21 02:20:05;;;;;;;6.60;2.50;;;;;;;5.56;100.00;101721.28;5013655;28;20045;-72
2024/03/21 02:22:37;;;;;;;4.90;2.83;;;;;;;5.57;100.00;101713.19;5013771;28;20048;-74
2024/03/21 02:25:04;;;;;;;7.70;2.47;;;;;;;5.62;100.00;101720.84;5029448;28;20037;-73
2024/03/21 02:27:31;;;;;;;8.23;3.05;;;;;;;5.67;100.00;101706.16;5045232;28;20025;-73
2024/03/21 02:29:57;;;;;;;5.72;2.50;;;;;;;5.72;100.00;101701.31;5049163;28;20031;-73
2024/03/21 02:32:22;;;;;;;6.28;2.63;;;;;;;5.77;100.00;101698.28;5009922;28;20120;-73
2024/03/21 02:34:48;;;;;;;6.72;3.42;;;;;;;5.83;100.00;101708.47;5001145;28;20033;-73
2024/03/21 02:37:14;;;;;;;7.93;3.08;;;;;;;5.92;100.00;101718.41;5012733;28;20383;-73
2024/03/21 02:39:41;;;;;;;5.15;2.83;;;;;;;5.97;100.00;101723.41;5015558;28;20017;-73
2024/03/21 02:42:07;;;;;;;6.55;2.88;;;;;;;6.01;100.00;101722.22;5025213;28;20399;-73
2024/03/21 02:44:33;;;;;;;6.53;3.05;;;;;;;6.03;100.00;101717.56;5006370;28;20473;-73
2024/03/21 02:46:58;;;;;;;6.07;2.92;;;;;;;6.05;100.00;101707.63;5033445;28;20033;-73
2024/03/21 02:49:24;;;;;;;5.30;2.65;;;;;;;6.07;100.00;101713.69;5019463;28;20029;-72
2024/03/21 02:51:49;;;;;;;7.13;2.75;;;;;;;6.08;100.00;101712.72;5038587;28;20029;-72
2024/03/21 02:54:15;;;;;;;8.70;2.95;;;;;;;6.11;100.00;101708.94;5016817;28;20072;-73
2024/03/21 02:56:40;;;;;;;6.85;2.75;;;;;;;6.12;100.00;101699.97;5028949;28;20033;-72
2024/03/21 02:59:06;;;;;;;7.00;2.88;;;;;;;6.13;100.00;101693.66;5017694;28;20098;-73
2024/03/21 03:01:32;;;;;;;7.18;3.25;;;;;;;6.12;100.00;101692.81;5020107;28;20500;-72
2024/03/21 03:03:57;;;;;;;7.93;3.22;;;;;;;6.12;100.00;101679.47;5058983;28;20040;-72
2024/03/21 03:06:23;;;;;;;4.93;2.72;;;;;;;6.14;100.00;101674.84;5001913;28;20439;-72
2024/03/21 03:08:48;;;;;;;7.05;2.72;;;;;;;6.12;100.00;101660.78;5040684;28;20040;-73
2024/03/21 03:11:14;;;;;;;8.65;2.63;;;;;;;6.15;100.00;101660.53;5010935;28;20038;-72
2024/03/21 03:13:40;;;;;;;4.63;2.60;;;;;;;6.16;100.00;101654.19;5006310;28;20078;-72
2024/03/21 03:16:05;;;;;;;4.75;2.17;;;;;;;6.19;100.00;101645.09;5017441;28;20041;-73
2024/03/21 03:18:31;;;;;;;4.75;2.88;;;;;;;6.19;100.00;101647.75;5023566;28;20042;-73
2024/03/21 03:20:57;;;;;;;8.45;2.88;;;;;;;6.20;100.00;101648.63;5034001;28;20049;-73
2024/03/21 03:23:23;;;;;;;6.32;2.05;;;;;;;6.20;100.00;101656.63;5025398;28;20038;-72
2024/03/21 03:25:48;;;;;;;9.10;2.55;;;;;;;6.20;100.00;101651.31;5011820;28;20531;-72
2024/03/21 03:28:14;;;;;;;6.95;2.70;;;;;;;6.20;100.00;101646.81;5017302;28;20040;-73
2024/03/21 03:30:39;;;;;;;5.35;2.65;;;;;;;6.20;100.00;101640.63;5010097;28;20046;-74
2024/03/21 03:35:49;;;;;;;7.78;2.67;;;;;;;6.16;100.00;101624.81;5020106;28;20064;-72
2024/03/21 03:38:15;;;;;;;5.60;2.38;;;;;;;6.13;100.00;101619.72;5013250;28;20042;-73
2024/03/21 03:40:41;;;;;;;6.20;2.60;;;;;;;6.13;100.00;101624.22;5021090;28;20120;-73
2024/03/21 03:43:07;;;;;;;6.63;2.67;;;;;;;6.15;100.00;101612.44;5000804;28;20060;-72
2024/03/21 03:45:33;;;;;;;8.05;2.85;;;;;;;6.21;100.00;101612.94;5010062;28;20034;-73
2024/03/21 03:47:58;;;;;;;5.35;2.25;;;;;;;6.28;100.00;101603.44;5011621;28;20140;-73
2024/03/21 03:50:24;;;;;;;7.20;2.50;;;;;;;6.33;100.00;101587.88;5032396;28;20029;-73
2024/03/21 03:52:50;;;;;;;6.95;2.30;;;;;;;6.38;100.00;101583.84;5034042;28;20032;-73
2024/03/21 03:55:15;;;;;;;4.22;2.20;;;;;;;6.43;100.00;101579.94;5004639;28;20033;-74
2024/03/21 03:57:41;;;;;;;5.97;2.25;;;;;;;6.42;100.00;101576.41;5002992;28;20040;-72
2024/03/21 04:00:10;;;;;;;5.32;2.78;;;;;;;6.41;100.00;101569.38;5010001;28;20029;-73
2024/03/21 04:02:37;;;;;;;8.27;2.55;;;;;;;6.38;100.00;101564.31;5024645;28;20103;-73
2024/03/21 04:05:05;;;;;;;6.00;2.30;;;;;;;6.31;100.00;101547.09;5024913;28;20029;-73
2024/03/21 04:07:31;;;;;;;7.55;2.70;;;;;;;6.34;100.00;101553.00;5026304;28;20104;-73
2024/03/21 04:09:58;;;;;;;7.10;2.60;;;;;;;6.35;100.00;101537.81;5014542;28;20045;-73
2024/03/21 04:12:24;;;;;;;5.72;2.38;;;;;;;6.39;100.00;101533.94;5020405;28;20041;-73
2024/03/21 04:14:52;;;;;;;4.65;1.90;;;;;;;6.47;100.00;101539.47;5009108;28;20087;-73
2024/03/21 04:17:20;;;;;;;3.85;1.92;;;;;;;6.53;100.00;101538.09;5023793;28;20130;-73
2024/03/21 04:19:45;;;;;;;5.30;2.08;;;;;;;6.58;100.00;101527.88;5048505;28;20029;-72
2024/03/21 04:22:11;;;;;;;3.15;1.60;;;;;;;6.64;100.00;101529.16;5003169;28;20048;-72
2024/03/21 04:24:37;;;;;;;4.85;2.20;;;;;;;6.70;100.00;101526.00;5031176;28;20485;-72
2024/03/21 04:27:03;;;;;;;5.28;1.52;;;;;;;6.78;100.00;101526.19;5020421;28;20037;-72
2024/03/21 04:29:29;;;;;;;4.75;1.95;;;;;;;6.81;100.00;101531.25;5030358;28;20396;-73
2024/03/21 04:31:55;;;;;;;3.67;1.70;;;;;;;6.83;100.00;101516.78;5033174;28;20041;-72
2024/03/21 04:34:20;;;;;;;6.40;2.00;;;;;;;6.87;100.00;101530.72;5017657;28;20045;-74
2024/03/21 04:36:46;;;;;;;3.78;1.90;;;;;;;6.85;100.00;101527.31;5028939;28;20033;-73
2024/03/21 04:39:12;;;;;;;5.90;1.83;;;;;;;6.79;100.00;101528.69;5021713;28;20033;-73
2024/03/21 04:41:37;;;;;;;3.80;2.08;;;;;;;6.71;100.00;101531.19;5018153;28;20427;-73
2024/03/21 04:44:03;;;;;;;3.67;1.73;;;;;;;6.62;100.00;101536.50;5010309;28;20475;-73
2024/03/21 04:46:29;;;;;;;3.45;1.70;;;;;;;6.62;100.00;101540.00;5008010;28;20041;-72
2024/03/21 04:48:55;;;;;;;4.68;1.60;;;;;;;6.63;100.00;101536.34;5035359;28;20045;-72
2024/03/21 04:51:20;;;;;;;4.35;2.22;;;;;;;6.65;100.00;101544.25;5020459;28;20042;-73
2024/03/21 04:53:48;;;;;;;3.75;2.28;;;;;;;6.66;100.00;101561.97;5064904;28;20033;-73
2024/03/21 04:56:14;;;;;;;6.75;2.08;;;;;;;6.67;100.00;101552.94;5035994;28;20065;-73
2024/03/21 04:58:40;;;;;;;6.10;2.38;;;;;;;6.68;100.00;101565.34;5005027;28;20492;-72
2024/03/21 05:01:06;;;;;;;6.65;2.30;;;;;;;6.66;100.00;101568.16;5021611;28;20030;-72
2024/03/21 05:03:31;;;;;;;3.00;1.65;;;;;;;6.59;100.00;101573.19;5005970;28;20139;-73
2024/03/21 05:05:57;;;;;;;5.35;2.20;;;;;;;6.47;100.00;101557.34;5005768;28;20428;-73
2024/03/21 05:08:23;;;;;;;5.05;2.20;;;;;;;6.33;100.00;101545.16;5035832;28;20037;-72
2024/03/21 05:10:49;;;;;;;4.25;1.67;;;;;;;6.23;100.00;101539.72;5048066;28;20037;-73
2024/03/21 05:13:14;;;;;;;2.30;1.48;;;;;;;6.24;100.00;101537.88;5018230;28;20503;-72
2024/03/21 05:15:50;;;;;;;2.60;1.23;;;;;;;6.28;100.00;101531.34;5011097;28;20072;-72
2024/03/21 05:18:16;;;;;;;6.45;2.17;;;;;;;6.31;100.00;101539.91;5008200;28;20468;-72
2024/03/21 05:20:42;;;;;;;6.13;1.90;;;;;;;6.37;100.00;101542.06;5030068;28;20079;-73
2024/03/21 05:23:08;;;;;;;4.45;1.60;;;;;;;6.48;100.00;101551.00;5043337;28;20562;-72
2024/03/21 05:25:37;;;;;;;2.75;1.23;;;;;;;6.54;100.00;101554.00;5035190;28;20059;-72
2024/03/21 05:28:04;;;;;;;3.17;1.40;;;;;;;6.58;100.00;101554.59;5033506;28;20068;-73
2024/03/21 05:30:30;;;;;;;2.70;0.82;;;;;;;6.62;100.00;101547.19;5039387;28;20040;-73
2024/03/21 05:32:58;;;;;;;2.60;1.42;;;;;;;6.64;100.00;101553.22;5001854;28;20051;-72
2024/03/21 05:35:24;;;;;;;2.40;1.20;;;;;;;6.66;100.00;101553.94;5013225;28;20133;-72
2024/03/21 05:37:52;;;;;;;2.22;1.20;;;;;;;6.70;100.00;101552.72;5004386;28;20117;-73
2024/03/21 05:40:17;;;;;;;4.07;1.20;;;;;;;6.71;100.00;101555.25;5018945;28;20068;-73
2024/03/21 05:42:43;;;;;;;5.63;1.40;;;;;;;6.71;100.00;101557.06;5042221;28;20472;-73
2024/03/21 05:45:09;;;;;;;5.68;1.50;;;;;;;6.73;100.00;101552.44;5000493;28;20041;-72
2024/03/21 05:47:35;;;;;;;2.85;1.00;;;;;;;6.73;100.00;101549.78;5000583;28;20541;-73
2024/03/21 05:50:00;;;;;;;2.15;1.10;;;;;;;6.73;100.00;101545.28;5001645;28;20048;-73
2024/03/21 05:52:27;;;;;;;2.67;2.20;;;;;;;6.74;100.00;101548.78;5014152;28;20384;-73
2024/03/21 05:54:52;;;;;;;2.88;1.20;;;;;;;6.80;100.00;101553.59;5013508;28;20116;-73
2024/03/21 05:57:18;;;;;;;2.25;0.90;;;;;;;6.82;100.00;101541.78;5019781;28;20183;-72
2024/03/21 05:59:44;;;;;;;5.75;1.48;;;;;;;6.83;100.00;101553.34;5003969;28;20095;-73
2024/03/21 06:02:13;;;;;;;2.15;0.88;;;;;;;6.87;100.00;101557.44;5005891;28;20058;-73
2024/03/21 06:04:38;;;;;;;4.07;1.08;;;;;;;6.91;100.00;101555.38;5013630;28;20026;-73
2024/03/21 06:07:04;;;;;;;4.30;1.58;;;;;;;6.91;100.00;101532.16;5008186;28;20096;-73
2024/03/21 06:09:32;;;;;;;3.10;1.15;;;;;;;6.93;100.00;101526.66;5005096;28;20103;-73
2024/03/21 06:11:57;;;;;;;1.15;0.88;;;;;;;6.97;100.00;101536.13;5043041;28;20021;-73
2024/03/21 06:14:23;;;;;;;1.90;0.85;;;;;;;7.02;100.00;101525.88;5016138;28;20461;-73
2024/03/21 06:16:49;;;;;;;4.40;0.98;;;;;;;7.09;100.00;101528.84;5002078;28;20069;-72
2024/03/21 06:19:14;;;;;;;3.05;1.00;;;;;;;7.13;100.00;101543.66;5001077;28;20036;-73
2024/03/21 06:21:40;;;;;;;1.48;0.82;;;;;;;7.17;100.00;101547.72;5035695;28;20033;-73
2024/03/21 06:24:06;;;;;;;3.63;0.93;;;;;;;7.18;100.00;101542.25;5010777;28;20043;-72
2024/03/21 06:26:32;;;;;;;2.90;1.00;;;;;;;7.20;100.00;101547.50;5005267;28;20534;-73
2024/03/21 06:28:57;;;;;;;3.40;1.10;;;;;;;7.23;100.00;101550.72;5033044;28;20055;-73
2024/03/21 06:31:24;;;;;;;2.28;1.17;;;;;;;7.27;100.00;101540.59;5013826;28;20070;-72
2024/03/21 06:33:49;;;;;;;1.25;0.90;;;;;;;7.27;100.00;101544.13;5033034;28;20103;-73
2024/03/21 06:36:15;;;;;;;3.90;1.02;;;;;;;7.28;100.00;101539.63;5022565;28;20383;-73
2024/03/21 06:38:40;;;;;;;5.40;1.50;;;;;;;7.32;100.00;101533.00;5011626;28;20034;-73
2024/03/21 06:41:06;;;;;;;2.17;1.13;;;;;;;7.41;100.00;101537.56;5012380;28;20430;-73
2024/03/21 06:43:32;;;;;;;2.30;0.90;;;;;;;7.52;100.00;101533.09;5031017;28;20033;-72
2024/03/21 06:45:58;;;;;;;1.00;0.90;;;;;;;7.58;100.00;101528.03;5000434;28;20472;-74
2024/03/21 06:48:24;;;;;;;4.68;1.17;;;;;;;7.62;100.00;101528.59;5035471;28;20045;-73
2024/03/21 06:50:50;;;;;;;2.83;1.10;;;;;;;7.65;100.00;101523.81;5008202;28;20044;-73
2024/03/21 06:53:16;;;;;;;5.65;1.33;;;;;;;7.66;100.00;101528.19;5025771;28;20036;-73
2024/03/21 06:55:41;;;;;;;3.38;1.13;;;;;;;7.70;100.00;101520.75;5015082;28;20360;-73
2024/03/21 06:58:08;;;;;;;3.63;1.00;;;;;;;7.73;100.00;101517.78;5017552;28;20365;-72
2024/03/21 07:00:33;;;;;;;3.75;0.95;;;;;;;7.72;100.00;101516.06;5013683;28;20034;-72
2024/03/21 07:02:59;;;;;;;3.67;1.10;;;;;;;7.71;100.00;101506.34;5008006;28;20438;-73
2024/03/21 07:05:25;;;;;;;3.28;0.95;;;;;;;7.71;100.00;101507.19;5025522;28;20155;-73
2024/03/21 07:07:52;;;;;;;3.10;1.20;;;;;;;7.74;100.00;101507.91;5010486;28;20075;-73
2024/03/21 07:10:19;;;;;;;2.53;0.85;;;;;;;7.75;100.00;101510.44;5037158;28;20051;-73
2024/03/21 07:12:45;;;;;;;1.50;0.90;;;;;;;7.75;100.00;101502.41;5001328;28;20037;-73
2024/03/21 07:15:14;;;;;;;4.68;1.55;;;;;;;7.79;100.00;101513.69;5011240;28;20136;-73
2024/03/21 07:17:40;;;;;;;1.70;0.90;;;;;;;7.81;100.00;101507.22;5028370;28;20029;-73
2024/03/21 07:20:06;;;;;;;3.75;0.82;;;;;;;7.82;100.00;101508.91;5011653;28;20034;-72
2024/03/21 07:22:32;;;;;;;6.75;1.10;;;;;;;7.84;100.00;101506.09;5003861;28;20033;-73
2024/03/21 07:24:58;;;;;;;3.05;0.90;;;;;;;7.88;100.00;101507.50;5017060;28;20391;-73
2024/03/21 07:27:24;;;;;;;2.58;1.00;;;;;;;7.90;100.00;101503.69;5023307;28;20040;-73
2024/03/21 07:29:49;;;;;;;2.25;1.20;;;;;;;7.90;100.00;101511.72;5016650;28;20037;-73
2024/03/21 07:32:15;;;;;;;3.63;1.42;;;;;;;7.92;100.00;101504.41;5031664;28;20486;-73
2024/03/21 07:34:41;;;;;;;6.35;1.20;;;;;;;7.91;100.00;101510.75;5028723;28;20025;-73
2024/03/21 07:37:06;;;;;;;5.03;1.08;;;;;;;7.93;100.00;101507.91;5000796;28;20034;-73
2024/03/21 07:39:33;;;;;;;2.22;1.00;;;;;;;7.97;100.00;101511.19;4999912;28;20468;-74
2024/03/21 07:41:59;;;;;;;2.75;1.25;;;;;;;7.99;100.00;101502.03;5037578;28;20025;-73
2024/03/21 07:44:25;;;;;;;4.05;1.17;;;;;;;8.04;100.00;101501.56;5018933;28;20059;-73
2024/03/21 07:46:53;;;;;;;2.70;1.00;;;;;;;8.09;100.00;101494.81;5010232;28;20037;-73
2024/03/21 07:49:19;;;;;;;4.68;1.10;;;;;;;8.10;100.00;101493.84;5039225;28;20570;-73
2024/03/21 07:51:47;;;;;;;2.95;0.90;;;;;;;8.12;100.00;101496.34;5006480;28;20117;-74
2024/03/21 07:54:13;;;;;;;2.78;0.95;;;;;;;8.14;100.00;101499.75;5012012;28;20472;-73
2024/03/21 07:56:38;;;;;;;5.18;1.35;;;;;;;8.18;100.00;101493.13;5028143;28;20041;-73
2024/03/21 07:59:06;;;;;;;6.03;1.65;;;;;;;8.23;100.00;101490.88;5020546;28;20095;-73
2024/03/21 08:01:32;;;;;;;4.22;1.13;;;;;;;8.28;100.00;101502.00;5000385;28;20065;-73
2024/03/21 08:04:01;;;;;;;3.67;1.25;;;;;;;8.32;100.00;101494.53;5015400;28;20038;-73
2024/03/21 08:06:26;;;;;;;3.35;1.17;;;;;;;8.36;100.00;101486.06;5013935;28;20056;-73
2024/03/21 08:08:52;;;;;;;2.95;0.95;;;;;;;8.45;100.00;101494.25;5031149;28;20069;-73
2024/03/21 08:11:18;;;;;;;3.13;1.13;;;;;;;8.47;100.00;101498.50;5010707;28;20033;-74
2024/03/21 08:13:43;;;;;;;5.85;1.23;;;;;;;8.47;100.00;101503.00;5011976;28;20115;-73
2024/03/21 08:16:09;;;;;;;2.13;1.00;;;;;;;8.48;100.00;101505.53;5029919;28;20472;-73
2024/03/21 08:18:35;;;;;;;6.38;1.20;;;;;;;8.52;100.00;101504.25;5035123;28;20503;-73
2024/03/21 08:21:05;;;;;;;3.65;1.23;;;;;;;8.59;100.00;101512.56;5035843;28;20033;-73
2024/03/21 08:23:31;;;;;;;4.57;1.30;;;;;;;8.65;100.00;101508.44;5036679;28;20044;-73
2024/03/21 08:26:04;;;;;;;2.83;1.20;;;;;;;8.75;100.00;101507.44;5008638;28;20041;-73
2024/03/21 08:28:30;;;;;;;6.05;1.48;;;;;;;8.79;100.00;101498.13;5047537;28;20056;-73
2024/03/21 08:30:58;;;;;;;2.70;1.30;;;;;;;8.88;100.00;101498.22;5011653;28;20037;-74
2024/03/21 08:33:24;;;;;;;3.60;1.40;;;;;;;8.97;100.00;101505.38;5005066;28;20103;-73
2024/03/21 08:35:50;;;;;;;3.38;1.20;;;;;;;9.01;100.00;101496.91;5008042;28;20045;-72
2024/03/21 08:38:16;;;;;;;3.75;1.23;;;;;;;9.10;100.00;101505.06;5030017;28;20041;-73
2024/03/21 08:40:54;;;;;;;5.18;1.63;;;;;;;9.19;100.00;101505.00;5016483;28;20034;-73
2024/03/21 08:43:20;;;;;;;5.88;1.42;;;;;;;9.29;100.00;101496.06;5009961;28;20042;-73
2024/03/21 08:45:47;;;;;;;4.95;1.83;;;;;;;9.36;100.00;101494.47;5014815;28;20037;-73
2024/03/21 08:48:13;;;;;;;10.52;2.25;;;;;;;9.39;100.00;101503.09;5078797;28;20033;-73
2024/03/21 08:50:40;;;;;;;2.88;1.00;;;;;;;9.40;100.00;101495.88;5048197;28;20048;-73
2024/03/21 08:53:06;;;;;;;4.43;1.38;;;;;;;9.42;100.00;101504.59;5004910;28;20045;-73
2024/03/21 08:55:33;;;;;;;3.58;1.65;;;;;;;9.45;100.00;101499.78;5044724;28;20112;-73
2024/03/21 08:57:59;;;;;;;6.82;1.50;;;;;;;9.47;100.00;101499.63;5020502;28;20121;-73
2024/03/21 09:00:27;;;;;;;8.48;2.13;;;;;;;9.50;100.00;101502.03;5004225;28;20076;-73
2024/03/21 09:02:53;;;;;;;2.53;1.27;;;;;;;9.58;100.00;101493.19;5037526;28;20037;-74
2024/03/21 09:05:21;;;;;;;3.30;1.10;;;;;;;9.70;100.00;101494.69;5037447;28;20042;-73
2024/03/21 09:07:47;;;;;;;5.43;1.50;;;;;;;9.80;100.00;101497.31;5017149;28;20057;-72
2024/03/21 09:10:12;;;;;;;4.43;1.65;;;;;;;9.82;100.00;101495.31;5014257;28;20065;-72
2024/03/21 09:12:42;;;;;;;4.03;1.50;;;;;;;9.91;100.00;101487.16;4998140;28;20492;-72
2024/03/21 09:15:13;;;;;;;5.82;1.88;;;;;;;10.02;100.00;101488.78;4998197;28;20069;-73
2024/03/21 09:17:39;;;;;;;4.57;1.17;;;;;;;10.12;100.00;101497.59;4997973;28;20041;-72
2024/03/21 09:20:07;;;;;;;8.65;1.75;;;;;;;10.21;100.00;101490.44;4998457;28;20364;-72
2024/03/21 09:22:34;;;;;;;5.80;1.80;;;;;;;10.31;100.00;101498.47;5030591;28;20480;-73
2024/03/21 09:25:00;;;;;;;5.05;1.40;;;;;;;10.36;100.00;101490.78;4997681;28;20038;-72
2024/03/21 09:27:26;;;;;;;12.38;2.92;;;;;;;10.50;100.00;101505.50;5013985;28;20041;-72
2024/03/21 09:29:52;;;;;;;9.60;2.63;;;;;;;10.56;100.00;101505.72;4997780;28;20069;-72
2024/03/21 09:32:17;;;;;;;11.63;3.28;;;;;;;10.65;100.00;101505.78;4997683;28;20029;-72
2024/03/21 09:34:47;;;;;;;14.23;3.53;;;;;;;10.66;100.00;101504.75;4997627;28;20183;-73
2024/03/21 09:37:14;;;;;;;7.53;2.75;;;;;;;10.73;100.00;101500.44;5029893;28;20026;-72
2024/03/21 09:39:40;;;;;;;7.07;2.55;;;;;;;10.82;100.00;101494.09;4997576;28;20491;-73
2024/03/21 09:42:07;;;;;;;8.18;3.10;;;;;;;10.96;100.00;101501.59;4997705;28;20133;-72
2024/03/21 09:44:34;;;;;;;8.63;3.65;;;;;;;10.98;100.00;101498.72;4997345;28;20033;-73
2024/03/21 09:47:00;;;;;;;5.32;2.17;;;;;;;10.85;100.00;101499.19;4997398;28;20448;-72
2024/03/21 09:49:28;;;;;;;10.20;4.40;;;;;;;10.74;100.00;101489.53;4997349;28;20034;-72
2024/03/21 09:51:54;;;;;;;9.68;3.33;;;;;;;10.71;100.00;101505.97;4997308;28;20046;-72
2024/03/21 09:54:19;;;;;;;14.23;5.97;;;;;;;10.73;100.00;101498.59;5012933;28;20125;-74
2024/03/21 09:56:46;;;;;;;9.27;3.97;;;;;;;10.72;100.00;101504.16;5011599;28;20036;-72
2024/03/21 09:59:15;;;;;;;10.40;4.13;;;;;;;10.66;100.00;101489.47;5000769;28;20034;-72
2024/03/21 10:01:41;;;;;;;8.85;4.55;;;;;;;10.61;100.00;101499.00;5032323;28;20041;-72
2024/03/21 10:04:07;;;;;;;14.48;5.65;;;;;;;10.56;100.00;101483.38;5021181;28;20072;-72
2024/03/21 10:06:46;;;;;;;12.32;4.85;;;;;;;10.50;100.00;101490.19;5012654;28;20119;-72
2024/03/21 10:09:12;;;;;;;11.95;4.45;;;;;;;10.45;100.00;101487.16;5005951;28;20379;-72
2024/03/21 10:11:40;;;;;;;9.73;3.97;;;;;;;10.38;100.00;101482.56;5002344;28;20374;-73
2024/03/21 10:14:05;;;;;;;9.25;3.88;;;;;;;10.32;100.00;101481.34;5017291;28;20136;-72
2024/03/21 10:16:31;;;;;;;8.95;2.80;;;;;;;10.23;100.00;101487.63;4998864;28;20470;-71
2024/03/21 10:19:00;;;;;;;11.98;4.75;;;;;;;10.14;100.00;101489.41;5013307;28;20041;-71
2024/03/21 10:21:26;;;;;;;6.35;2.63;;;;;;;10.09;100.00;101487.16;4999785;28;20457;-72
2024/03/21 10:24:02;;;;;;;8.57;3.25;;;;;;;10.12;100.00;101494.91;5012961;28;20140;-72
2024/03/21 10:26:30;;;;;;;9.18;4.50;;;;;;;10.22;100.00;101488.63;5006479;28;20052;-72
2024/03/21 10:28:56;;;;;;;7.10;3.65;;;;;;;10.29;100.00;101490.56;5003482;28;20095;-72
2024/03/21 10:31:22;;;;;;;9.43;3.78;;;;;;;10.33;100.00;101494.63;5013884;28;20038;-72
2024/03/21 10:33:54;;;;;;;9.07;2.92;;;;;;;10.27;100.00;101487.19;5029395;28;20096;-72
2024/03/21 10:36:20;;;;;;;11.02;3.75;;;;;;;10.17;100.00;101482.88;5028221;28;20038;-72
2024/03/21 10:38:45;;;;;;;8.45;3.00;;;;;;;10.09;100.00;101481.78;5029790;28;20048;-72
2024/03/21 10:41:20;;;;;;;8.30;3.25;;;;;;;10.08;100.00;101480.13;5003605;28;20502;-72
2024/03/21 10:43:49;;;;;;;7.18;3.05;;;;;;;10.11;100.00;101476.28;5024192;28;20033;-72
2024/03/21 10:46:15;;;;;;;8.43;3.10;;;;;;;10.17;100.00;101475.66;5033579;28;20036;-72
2024/03/21 10:48:41;;;;;;;10.77;4.15;;;;;;;10.24;100.00;101473.16;5019475;28;20036;-72
2024/03/21 10:51:11;;;;;;;11.35;3.95;;;;;;;10.32;100.00;101470.59;5017613;28;20123;-72
2024/03/21 10:53:38;;;;;;;7.32;3.90;;;;;;;10.37;100.00;101470.09;5052279;28;20068;-72
2024/03/21 10:56:06;;;;;;;7.07;2.75;;;;;;;10.39;100.00;101481.56;5050206;28;20390;-72
2024/03/21 10:58:32;;;;;;;8.75;3.15;;;;;;;10.42;100.00;101482.06;5004956;28;20034;-72
2024/03/21 11:00:57;;;;;;;11.73;3.55;;;;;;;10.49;100.00;101467.00;5006914;28;20029;-72
2024/03/21 11:03:23;;;;;;;9.18;4.00;;;;;;;10.56;100.00;101465.38;5002097;28;20033;-72
2024/03/21 11:05:55;;;;;;;10.20;3.75;;;;;;;10.62;100.00;101450.47;5015672;28;20037;-72
2024/03/21 11:08:26;;;;;;;7.87;3.87;;;;;;;10.64;100.00;101458.34;5009688;28;20475;-73
2024/03/21 11:10:54;;;;;;;10.05;2.88;;;;;;;10.59;100.00;101447.25;5008227;28;20487;-73
2024/03/21 11:13:20;;;;;;;4.60;2.80;;;;;;;10.60;100.00;101455.13;5005481;28;20029;-72
2024/03/21 11:15:45;;;;;;;8.77;2.95;;;;;;;10.62;100.00;101461.22;5055805;28;20040;-72
2024/03/21 11:18:11;;;;;;;7.13;2.55;;;;;;;10.66;100.00;101461.72;5015684;28;20120;-73
2024/03/21 11:20:38;;;;;;;6.90;3.00;;;;;;;10.72;100.00;101456.56;5006131;28;20391;-72
2024/03/21 11:23:05;;;;;;;10.57;3.95;;;;;;;10.80;100.00;101455.78;5021922;28;20037;-73